createdAt,value
2023-04-15T00:00:21.699Z,33.28
2023-04-15T00:00:51.707Z,33.31
2023-04-15T00:01:21.758Z,33.28
2023-04-15T00:01:51.809Z,33.34
2023-04-15T00:02:22.118Z,33.32
2023-04-15T00:02:51.990Z,33.26
2023-04-15T00:03:22.185Z,33.35
2023-04-15T00:03:52.171Z,33.37
2023-04-15T00:04:22.253Z,33.32
2023-04-15T00:04:52.261Z,33.41
2023-04-15T00:05:22.266Z,33.40
2023-04-15T00:05:52.313Z,33.34
2023-04-15T00:06:22.340Z,33.35
2023-04-15T00:06:52.349Z,33.38
2023-04-15T00:07:22.417Z,33.36
2023-04-15T00:07:52.434Z,33.36
2023-04-15T00:08:22.411Z,33.37
2023-04-15T00:08:52.493Z,33.39
2023-04-15T00:09:22.603Z,33.38
2023-04-15T00:09:52.697Z,33.40
2023-04-15T00:10:22.782Z,33.35
2023-04-15T00:10:52.856Z,33.34
2023-04-15T00:11:22.936Z,33.38
2023-04-15T00:11:53.029Z,33.33
2023-04-15T00:12:23.134Z,33.28
2023-04-15T00:12:53.215Z,33.31
2023-04-15T00:13:23.302Z,33.34
2023-04-15T00:13:53.377Z,33.32
2023-04-15T00:14:23.460Z,33.26
2023-04-15T00:14:53.577Z,33.31
2023-04-15T00:15:23.656Z,33.45
2023-04-15T00:15:53.754Z,33.32
2023-04-15T00:16:23.887Z,33.36
2023-04-15T00:16:54.030Z,33.36
2023-04-15T00:17:24.019Z,33.32
2023-04-15T00:18:24.093Z,33.32
2023-04-15T00:18:54.109Z,33.24
2023-04-15T00:19:24.095Z,33.30
2023-04-15T00:19:54.107Z,33.36
2023-04-15T00:20:24.111Z,33.35
2023-04-15T00:20:54.125Z,33.35
2023-04-15T00:21:24.137Z,33.35
2023-04-15T00:21:54.144Z,33.32
2023-04-15T00:22:24.169Z,33.38
2023-04-15T00:22:54.170Z,33.36
2023-04-15T00:23:24.204Z,33.42
2023-04-15T00:23:54.200Z,33.30
2023-04-15T00:24:24.243Z,33.24
2023-04-15T00:24:54.227Z,33.29
2023-04-15T00:25:24.254Z,33.29
2023-04-15T00:25:54.262Z,33.32
2023-04-15T00:26:24.279Z,33.29
2023-04-15T00:26:54.285Z,33.24
2023-04-15T00:27:24.298Z,33.26
2023-04-15T00:27:54.321Z,33.27
2023-04-15T00:28:24.317Z,33.29
2023-04-15T00:28:54.324Z,33.27
2023-04-15T00:29:24.329Z,33.23
2023-04-15T00:29:54.348Z,33.26
2023-04-15T00:30:24.346Z,33.39
2023-04-15T00:30:54.411Z,33.27
2023-04-15T00:31:24.589Z,33.26
2023-04-15T00:31:54.497Z,33.26
2023-04-15T00:32:24.648Z,33.30
2023-04-15T00:32:54.583Z,33.23
2023-04-15T00:33:24.641Z,33.09
2023-04-15T00:33:54.648Z,33.12
2023-04-15T00:34:24.656Z,33.11
2023-04-15T00:34:54.670Z,33.08
2023-04-15T00:35:24.682Z,33.03
2023-04-15T00:35:54.696Z,33.14
2023-04-15T00:36:24.715Z,33.07
2023-04-15T00:36:54.778Z,33.12
2023-04-15T00:37:24.775Z,33.17
2023-04-15T00:37:54.782Z,33.15
2023-04-15T00:38:24.804Z,33.14
2023-04-15T00:38:54.797Z,33.17
2023-04-15T00:39:24.806Z,33.21
2023-04-15T00:39:54.814Z,33.23
2023-04-15T00:40:24.862Z,33.15
2023-04-15T00:40:54.866Z,33.15
2023-04-15T00:41:24.863Z,33.19
2023-04-15T00:41:54.880Z,33.18
2023-04-15T00:42:24.885Z,33.27
2023-04-15T00:42:54.894Z,33.30
2023-04-15T00:43:24.906Z,33.30
2023-04-15T00:43:54.928Z,33.31
2023-04-15T00:44:24.967Z,33.34
2023-04-15T00:44:54.972Z,33.41
2023-04-15T00:45:24.965Z,33.40
2023-04-15T00:45:55.001Z,33.41
2023-04-15T00:46:25.084Z,33.43
2023-04-15T00:46:55.115Z,33.41
2023-04-15T00:47:25.142Z,33.44
2023-04-15T00:47:55.213Z,33.46
2023-04-15T00:48:25.210Z,33.48
2023-04-15T00:48:55.264Z,33.40
2023-04-15T00:49:25.266Z,33.40
2023-04-15T00:49:55.272Z,33.31
2023-04-15T00:50:25.278Z,33.47
2023-04-15T00:50:55.276Z,33.40
2023-04-15T00:51:25.302Z,33.38
2023-04-15T00:51:55.300Z,33.38
2023-04-15T00:52:25.333Z,33.40
2023-04-15T00:52:55.332Z,33.35
2023-04-15T00:53:25.372Z,33.40
2023-04-15T00:53:55.375Z,33.37
2023-04-15T00:54:25.379Z,33.34
2023-04-15T00:54:55.411Z,33.34
2023-04-15T00:55:25.430Z,33.29
2023-04-15T00:55:55.431Z,33.30
2023-04-15T00:56:25.444Z,33.24
2023-04-15T00:56:55.440Z,33.28
2023-04-15T00:57:25.456Z,33.25
2023-04-15T00:57:55.460Z,33.28
2023-04-15T00:58:25.467Z,33.22
2023-04-15T00:58:55.480Z,33.25
2023-04-15T00:59:25.504Z,33.24
2023-04-15T00:59:55.507Z,33.24
2023-04-15T01:00:25.510Z,33.28
2023-04-15T01:00:55.540Z,33.29
2023-04-15T01:01:25.552Z,33.38
2023-04-15T01:01:55.617Z,33.26
2023-04-15T01:02:25.772Z,33.28
2023-04-15T01:02:55.831Z,33.25
2023-04-15T01:03:25.820Z,33.17
2023-04-15T01:03:55.784Z,33.24
2023-04-15T01:04:25.772Z,33.25
2023-04-15T01:04:55.702Z,33.22
2023-04-15T01:05:25.707Z,33.24
2023-04-15T01:05:55.723Z,33.22
2023-04-15T01:06:25.713Z,33.17
2023-04-15T01:06:55.726Z,33.18
2023-04-15T01:07:25.746Z,33.22
2023-04-15T01:07:55.750Z,33.21
2023-04-15T01:08:25.838Z,33.25
2023-04-15T01:08:55.917Z,33.24
2023-04-15T01:09:26.013Z,33.26
2023-04-15T01:09:56.106Z,33.17
2023-04-15T01:10:26.185Z,33.22
2023-04-15T01:10:56.309Z,33.24
2023-04-15T01:11:26.268Z,33.19
2023-04-15T01:11:56.353Z,33.19
2023-04-15T01:12:26.463Z,33.17
2023-04-15T01:12:56.531Z,33.19
2023-04-15T01:13:26.623Z,33.22
2023-04-15T01:13:56.712Z,33.16
2023-04-15T01:14:26.803Z,33.11
2023-04-15T01:14:56.917Z,33.13
2023-04-15T01:15:27.010Z,33.14
2023-04-15T01:15:57.113Z,33.14
2023-04-15T01:16:27.129Z,33.13
2023-04-15T01:16:57.103Z,33.10
2023-04-15T01:17:27.225Z,33.13
2023-04-15T01:17:57.213Z,33.11
2023-04-15T01:18:27.233Z,33.10
2023-04-15T01:18:57.201Z,33.12
2023-04-15T01:19:27.248Z,33.08
2023-04-15T01:19:57.264Z,33.11
2023-04-15T01:20:27.278Z,33.19
2023-04-15T01:20:57.295Z,33.16
2023-04-15T01:21:27.308Z,33.20
2023-04-15T01:21:57.309Z,33.09
2023-04-15T01:22:27.316Z,33.18
2023-04-15T01:22:57.307Z,33.13
2023-04-15T01:23:27.332Z,33.23
2023-04-15T01:23:57.339Z,33.21
2023-04-15T01:24:27.355Z,33.21
2023-04-15T01:24:57.362Z,33.25
2023-04-15T01:25:27.366Z,33.25
2023-04-15T01:25:57.384Z,33.32
2023-04-15T01:26:27.509Z,33.41
2023-04-15T01:26:57.506Z,33.32
2023-04-15T01:27:27.516Z,33.36
2023-04-15T01:27:57.522Z,33.33
2023-04-15T01:28:27.544Z,33.30
2023-04-15T01:28:57.735Z,33.31
2023-04-15T01:29:27.571Z,33.39
2023-04-15T01:29:57.598Z,33.37
2023-04-15T01:30:27.624Z,33.36
2023-04-15T01:30:57.613Z,33.37
2023-04-15T01:31:27.665Z,33.42
2023-04-15T01:31:57.745Z,33.37
2023-04-15T01:32:27.801Z,33.34
2023-04-15T01:32:57.849Z,33.33
2023-04-15T01:33:27.853Z,33.34
2023-04-15T01:33:57.883Z,33.33
2023-04-15T01:34:27.860Z,33.42
2023-04-15T01:35:28.010Z,33.37
2023-04-15T01:35:58.001Z,33.36
2023-04-15T01:36:28.004Z,33.45
2023-04-15T01:36:58.009Z,33.35
2023-04-15T01:37:28.015Z,33.37
2023-04-15T01:37:58.032Z,33.32
2023-04-15T01:38:28.027Z,33.36
2023-04-15T01:38:58.217Z,33.30
2023-04-15T01:39:28.095Z,33.29
2023-04-15T01:39:58.100Z,33.26
2023-04-15T01:40:28.117Z,33.24
2023-04-15T01:40:58.142Z,33.32
2023-04-15T01:41:28.175Z,33.18
2023-04-15T01:41:58.186Z,33.20
2023-04-15T01:42:28.222Z,33.27
2023-04-15T01:42:58.214Z,33.23
2023-04-15T01:43:28.286Z,33.24
2023-04-15T01:43:58.262Z,33.12
2023-04-15T01:44:28.300Z,33.18
2023-04-15T01:44:58.293Z,33.20
2023-04-15T01:45:28.331Z,33.23
2023-04-15T01:45:58.333Z,33.15
2023-04-15T01:46:28.409Z,33.15
2023-04-15T01:46:58.629Z,33.17
2023-04-15T01:47:28.519Z,33.16
2023-04-15T01:47:58.582Z,33.18
2023-04-15T01:48:28.666Z,33.18
2023-04-15T01:48:58.894Z,33.17
2023-04-15T01:49:28.713Z,33.17
2023-04-15T01:49:58.696Z,33.17
2023-04-15T01:50:58.705Z,33.13
2023-04-15T01:51:28.727Z,33.11
2023-04-15T01:51:58.742Z,33.07
2023-04-15T01:52:28.770Z,33.06
2023-04-15T01:52:58.795Z,33.00
2023-04-15T01:53:28.773Z,33.02
2023-04-15T01:53:58.781Z,33.09
2023-04-15T01:54:28.806Z,33.08
2023-04-15T01:54:58.807Z,33.09
2023-04-15T01:55:28.839Z,33.06
2023-04-15T01:55:58.859Z,33.02
2023-04-15T01:56:28.881Z,33.02
2023-04-15T01:56:58.892Z,33.02
2023-04-15T01:57:28.892Z,33.03
2023-04-15T01:57:58.929Z,32.94
2023-04-15T01:58:29.046Z,33.02
2023-04-15T01:58:59.295Z,33.00
2023-04-15T01:59:29.130Z,33.05
2023-04-15T01:59:59.136Z,33.09
2023-04-15T02:00:29.126Z,33.13
2023-04-15T02:00:59.154Z,32.99
2023-04-15T02:01:29.325Z,33.03
2023-04-15T02:01:59.212Z,33.00
2023-04-15T02:02:29.304Z,33.00
2023-04-15T02:02:59.283Z,33.02
2023-04-15T02:03:29.477Z,33.03
2023-04-15T02:03:59.482Z,32.98
2023-04-15T02:04:29.505Z,33.00
2023-04-15T02:04:59.581Z,33.07
2023-04-15T02:05:29.560Z,32.99
2023-04-15T02:05:59.569Z,33.04
2023-04-15T02:06:29.577Z,33.04
2023-04-15T02:06:59.585Z,33.06
2023-04-15T02:07:29.588Z,33.10
2023-04-15T02:07:59.590Z,33.12
2023-04-15T02:08:29.715Z,33.03
2023-04-15T02:09:00.263Z,33.12
2023-04-15T02:09:29.801Z,33.09
2023-04-15T02:09:59.876Z,33.19
2023-04-15T02:10:30.009Z,33.21
2023-04-15T02:10:59.967Z,33.20
2023-04-15T02:12:00.002Z,33.25
2023-04-15T02:12:30.097Z,33.23
2023-04-15T02:13:00.186Z,33.16
2023-04-15T02:13:30.260Z,33.16
2023-04-15T02:14:00.355Z,33.16
2023-04-15T02:14:30.429Z,33.15
2023-04-15T02:15:00.513Z,33.19
2023-04-15T02:15:30.624Z,33.12
2023-04-15T02:16:00.700Z,33.12
2023-04-15T02:16:30.811Z,33.18
2023-04-15T02:17:00.874Z,33.12
2023-04-15T02:17:30.999Z,33.14
2023-04-15T02:18:01.030Z,33.15
2023-04-15T02:18:30.983Z,33.14
2023-04-15T02:19:01.458Z,33.10
2023-04-15T02:19:31.064Z,33.09
2023-04-15T02:20:01.070Z,33.07
2023-04-15T02:20:31.130Z,33.16
2023-04-15T02:21:01.113Z,33.15
2023-04-15T02:21:31.119Z,33.11
2023-04-15T02:22:01.175Z,33.08
2023-04-15T02:22:31.152Z,33.12
2023-04-15T02:23:01.173Z,33.13
2023-04-15T02:23:31.192Z,33.16
2023-04-15T02:24:01.235Z,33.18
2023-04-15T02:24:31.259Z,33.17
2023-04-15T02:25:01.254Z,33.19
2023-04-15T02:25:31.271Z,33.23
2023-04-15T02:26:01.339Z,33.22
2023-04-15T02:26:31.330Z,33.22
2023-04-15T02:27:01.342Z,33.20
2023-04-15T02:27:31.352Z,33.20
2023-04-15T02:28:01.392Z,33.17
2023-04-15T02:28:31.390Z,33.17
2023-04-15T02:29:01.567Z,33.11
2023-04-15T02:29:31.418Z,33.16
2023-04-15T02:30:01.443Z,33.07
2023-04-15T02:30:31.440Z,33.07
2023-04-15T02:31:01.442Z,33.10
2023-04-15T02:31:31.493Z,33.06
2023-04-15T02:32:01.551Z,33.13
2023-04-15T02:32:31.558Z,33.07
2023-04-15T02:33:01.641Z,33.16
2023-04-15T02:33:31.635Z,33.06
2023-04-15T02:34:01.627Z,33.07
2023-04-15T02:34:31.642Z,33.06
2023-04-15T02:35:01.634Z,33.06
2023-04-15T02:35:31.636Z,33.03
2023-04-15T02:36:01.679Z,33.04
2023-04-15T02:36:31.661Z,33.03
2023-04-15T02:37:01.741Z,32.95
2023-04-15T02:37:31.716Z,33.00
2023-04-15T02:38:01.725Z,33.00
2023-04-15T02:38:31.727Z,33.01
2023-04-15T02:39:02.040Z,32.98
2023-04-15T02:39:31.749Z,33.04
2023-04-15T02:40:01.768Z,32.95
2023-04-15T02:40:31.778Z,32.96
2023-04-15T02:41:01.775Z,32.93
2023-04-15T02:41:31.787Z,33.02
2023-04-15T02:42:01.812Z,32.96
2023-04-15T02:42:31.809Z,32.97
2023-04-15T02:43:01.861Z,33.00
2023-04-15T02:43:31.901Z,32.99
2023-04-15T02:44:01.908Z,33.00
2023-04-15T02:44:31.913Z,32.96
2023-04-15T02:45:01.918Z,32.93
2023-04-15T02:45:31.921Z,33.04
2023-04-15T02:46:01.954Z,32.98
2023-04-15T02:46:32.007Z,33.01
2023-04-15T02:47:01.971Z,33.03
2023-04-15T02:48:02.041Z,33.06
2023-04-15T02:48:32.103Z,33.15
2023-04-15T02:49:02.389Z,33.03
2023-04-15T02:49:32.199Z,33.06
2023-04-15T02:50:02.226Z,33.11
2023-04-15T02:50:32.214Z,33.12
2023-04-15T02:51:02.210Z,33.08
2023-04-15T02:51:32.245Z,33.11
2023-04-15T02:52:02.283Z,33.13
2023-04-15T02:52:32.269Z,33.16
2023-04-15T02:53:02.279Z,33.15
2023-04-15T02:53:32.297Z,33.19
2023-04-15T02:54:02.296Z,33.13
2023-04-15T02:54:32.296Z,33.18
2023-04-15T02:55:02.311Z,33.12
2023-04-15T02:55:32.314Z,33.21
2023-04-15T02:56:32.406Z,33.12
2023-04-15T02:57:02.421Z,33.17
2023-04-15T02:57:32.427Z,33.08
2023-04-15T02:58:02.444Z,33.08
2023-04-15T02:58:32.437Z,33.12
2023-04-15T02:59:02.623Z,33.12
2023-04-15T02:59:32.515Z,33.13
2023-04-15T03:00:02.528Z,33.16
2023-04-15T03:00:32.526Z,33.13
2023-04-15T03:01:02.564Z,33.13
2023-04-15T03:01:32.612Z,33.11
2023-04-15T03:02:02.686Z,33.07
2023-04-15T03:02:32.817Z,33.15
2023-04-15T03:03:02.933Z,33.08
2023-04-15T03:03:33.012Z,33.14
2023-04-15T03:04:03.061Z,33.11
2023-04-15T03:04:32.946Z,33.08
2023-04-15T03:05:03.042Z,33.08
2023-04-15T03:05:33.061Z,33.05
2023-04-15T03:06:03.074Z,33.11
2023-04-15T03:06:33.094Z,33.09
2023-04-15T03:07:03.123Z,33.11
2023-04-15T03:07:33.129Z,33.08
2023-04-15T03:08:03.135Z,33.11
2023-04-15T03:08:33.228Z,33.12
2023-04-15T03:09:03.423Z,33.15
2023-04-15T03:09:33.436Z,33.15
2023-04-15T03:10:03.510Z,33.16
2023-04-15T03:10:33.595Z,33.12
2023-04-15T03:11:03.707Z,33.15
2023-04-15T03:11:35.451Z,33.09
2023-04-15T03:12:03.879Z,33.11
2023-04-15T03:12:33.951Z,33.05
2023-04-15T03:13:03.988Z,33.02
2023-04-15T03:13:34.063Z,33.07
2023-04-15T03:14:04.162Z,33.00
2023-04-15T03:14:34.247Z,33.02
2023-04-15T03:15:04.331Z,32.99
2023-04-15T03:15:34.434Z,32.97
2023-04-15T03:16:04.430Z,32.98
2023-04-15T03:16:34.547Z,32.97
2023-04-15T03:17:04.607Z,32.93
2023-04-15T03:17:34.705Z,32.93
2023-04-15T03:18:04.693Z,32.96
2023-04-15T03:18:34.698Z,32.91
2023-04-15T03:19:04.690Z,32.93
2023-04-15T03:19:34.702Z,32.99
2023-04-15T03:20:04.720Z,33.05
2023-04-15T03:20:34.795Z,32.98
2023-04-15T03:21:04.788Z,33.00
2023-04-15T03:21:34.820Z,32.97
2023-04-15T03:22:04.856Z,33.00
2023-04-15T03:22:34.843Z,32.98
2023-04-15T03:23:34.940Z,32.99
2023-04-15T03:24:04.943Z,32.97
2023-04-15T03:24:34.957Z,33.00
2023-04-15T03:25:04.953Z,33.03
2023-04-15T03:25:35.000Z,33.07
2023-04-15T03:26:05.010Z,32.99
2023-04-15T03:26:35.015Z,33.07
2023-04-15T03:27:05.053Z,33.07
2023-04-15T03:27:35.055Z,33.06
2023-04-15T03:28:05.061Z,33.09
2023-04-15T03:28:35.069Z,33.09
2023-04-15T03:29:05.071Z,33.09
2023-04-15T03:29:35.092Z,32.98
2023-04-15T03:30:05.092Z,33.10
2023-04-15T03:30:35.115Z,33.12
2023-04-15T03:31:05.178Z,33.11
2023-04-15T03:31:35.340Z,33.05
2023-04-15T03:32:05.253Z,33.07
2023-04-15T03:32:35.303Z,33.07
2023-04-15T03:33:05.315Z,33.02
2023-04-15T03:33:35.322Z,33.06
2023-04-15T03:34:05.333Z,33.06
2023-04-15T03:34:35.383Z,33.07
2023-04-15T03:35:05.386Z,33.01
2023-04-15T03:35:35.371Z,33.04
2023-04-15T03:36:05.389Z,33.10
2023-04-15T03:36:35.393Z,33.04
2023-04-15T03:37:05.397Z,33.07
2023-04-15T03:37:35.425Z,33.05
2023-04-15T03:38:05.404Z,33.07
2023-04-15T03:39:05.482Z,33.15
2023-04-15T03:39:35.502Z,33.18
2023-04-15T03:40:05.507Z,33.12
2023-04-15T03:40:35.516Z,33.11
2023-04-15T03:41:05.526Z,33.15
2023-04-15T03:41:35.581Z,33.17
2023-04-15T03:42:05.576Z,33.18
2023-04-15T03:42:35.570Z,33.18
2023-04-15T03:43:35.652Z,33.11
2023-04-15T03:44:05.689Z,33.13
2023-04-15T03:44:35.686Z,33.11
2023-04-15T03:45:05.698Z,33.14
2023-04-15T03:45:35.703Z,33.16
2023-04-15T03:46:05.749Z,33.20
2023-04-15T03:46:35.843Z,33.18
2023-04-15T03:47:05.869Z,33.18
2023-04-15T03:47:35.885Z,33.17
2023-04-15T03:48:16.447Z,33.12
2023-04-15T03:48:35.988Z,33.12
2023-04-15T03:49:06.006Z,33.20
2023-04-15T03:49:36.021Z,33.14
2023-04-15T03:50:06.032Z,33.15
2023-04-15T03:50:36.042Z,33.16
2023-04-15T03:51:06.048Z,33.12
2023-04-15T03:51:36.051Z,33.18
2023-04-15T03:52:06.054Z,33.14
2023-04-15T03:52:36.100Z,33.17
2023-04-15T03:53:06.118Z,33.17
2023-04-15T03:53:36.093Z,33.21
2023-04-15T03:54:36.195Z,33.23
2023-04-15T03:55:06.250Z,33.26
2023-04-15T03:55:36.236Z,33.16
2023-04-15T03:56:06.245Z,33.17
2023-04-15T03:56:36.256Z,33.14
2023-04-15T03:57:06.260Z,33.13
2023-04-15T03:57:36.263Z,33.13
2023-04-15T03:58:06.271Z,33.13
2023-04-15T03:58:36.277Z,33.17
2023-04-15T03:59:06.278Z,33.12
2023-04-15T03:59:36.293Z,33.12
2023-04-15T04:00:06.297Z,33.14
2023-04-15T04:00:36.303Z,33.07
2023-04-15T04:01:06.338Z,33.06
2023-04-15T04:01:36.394Z,33.10
2023-04-15T04:02:06.417Z,33.13
2023-04-15T04:02:36.412Z,33.08
2023-04-15T04:03:06.590Z,33.04
2023-04-15T04:03:36.508Z,32.98
2023-04-15T04:04:06.475Z,32.90
2023-04-15T04:04:36.540Z,32.99
2023-04-15T04:05:06.620Z,32.97
2023-04-15T04:05:36.613Z,32.98
2023-04-15T04:06:06.618Z,33.02
2023-04-15T04:06:36.695Z,32.96
2023-04-15T04:07:06.682Z,32.95
2023-04-15T04:07:36.689Z,32.95
2023-04-15T04:08:06.711Z,32.99
2023-04-15T04:08:36.830Z,32.96
2023-04-15T04:09:06.899Z,33.03
2023-04-15T04:09:36.986Z,33.04
2023-04-15T04:10:07.071Z,33.00
2023-04-15T04:10:37.195Z,33.08
2023-04-15T04:11:07.254Z,33.11
2023-04-15T04:11:37.343Z,33.05
2023-04-15T04:12:07.443Z,33.06
2023-04-15T04:12:37.543Z,33.03
2023-04-15T04:13:07.620Z,33.07
2023-04-15T04:13:37.692Z,33.03
2023-04-15T04:14:07.770Z,33.00
2023-04-15T04:14:37.887Z,33.04
2023-04-15T04:15:07.963Z,33.00
2023-04-15T04:15:38.082Z,33.02
2023-04-15T04:16:08.367Z,32.99
2023-04-15T04:16:38.238Z,33.03
2023-04-15T04:17:08.417Z,33.02
2023-04-15T04:17:38.466Z,32.98
2023-04-15T04:18:08.459Z,33.07
2023-04-15T04:18:38.484Z,33.08
2023-04-15T04:19:08.472Z,33.07
2023-04-15T04:19:38.482Z,33.01
2023-04-15T04:20:08.488Z,33.06
2023-04-15T04:20:38.496Z,33.07
2023-04-15T04:21:08.503Z,33.10
2023-04-15T04:21:38.547Z,33.14
2023-04-15T04:22:08.540Z,33.14
2023-04-15T04:22:38.546Z,33.16
2023-04-15T04:23:08.575Z,33.20
2023-04-15T04:23:38.604Z,33.29
2023-04-15T04:24:08.629Z,33.30
2023-04-15T04:24:38.617Z,33.29
2023-04-15T04:25:38.719Z,33.27
2023-04-15T04:26:08.755Z,33.33
2023-04-15T04:26:38.776Z,33.26
2023-04-15T04:27:08.793Z,33.29
2023-04-15T04:27:38.794Z,33.20
2023-04-15T04:28:08.806Z,33.20
2023-04-15T04:28:38.810Z,33.28
2023-04-15T04:29:08.824Z,33.20
2023-04-15T04:29:38.855Z,33.20
2023-04-15T04:30:08.837Z,33.23
2023-04-15T04:30:38.841Z,33.22
2023-04-15T04:31:08.855Z,33.22
2023-04-15T04:31:38.978Z,33.27
2023-04-15T04:32:09.080Z,33.17
2023-04-15T04:32:39.090Z,33.17
2023-04-15T04:33:09.099Z,33.17
2023-04-15T04:33:39.097Z,33.20
2023-04-15T04:34:09.097Z,33.19
2023-04-15T04:34:39.114Z,33.16
2023-04-15T04:35:09.126Z,33.10
2023-04-15T04:35:39.430Z,33.16
2023-04-15T04:36:09.198Z,33.16
2023-04-15T04:36:39.222Z,33.11
2023-04-15T04:37:09.216Z,33.09
2023-04-15T04:37:39.229Z,33.10
2023-04-15T04:38:09.266Z,33.08
2023-04-15T04:38:39.324Z,33.09
2023-04-15T04:39:09.306Z,33.09
2023-04-15T04:39:39.326Z,33.13
2023-04-15T04:40:09.350Z,33.16
2023-04-15T04:40:39.375Z,33.16
2023-04-15T04:41:09.442Z,33.17
2023-04-15T04:41:39.440Z,33.19
2023-04-15T04:42:09.440Z,33.13
2023-04-15T04:42:40.262Z,33.12
2023-04-15T04:43:09.509Z,33.08
2023-04-15T04:43:39.525Z,33.14
2023-04-15T04:44:09.534Z,33.13
2023-04-15T04:44:39.550Z,33.16
2023-04-15T04:45:09.563Z,33.10
2023-04-15T04:45:39.621Z,33.11
2023-04-15T04:46:09.629Z,33.11
2023-04-15T04:46:39.648Z,33.13
2023-04-15T04:47:09.673Z,33.11
2023-04-15T04:47:39.712Z,33.16
2023-04-15T04:48:09.746Z,33.11
2023-04-15T04:48:40.389Z,33.14
2023-04-15T04:49:09.811Z,33.20
2023-04-15T04:50:09.925Z,33.10
2023-04-15T04:50:39.945Z,33.11
2023-04-15T04:51:09.953Z,33.06
2023-04-15T04:51:39.981Z,33.04
2023-04-15T04:52:09.969Z,33.07
2023-04-15T04:52:39.980Z,33.01
2023-04-15T04:53:09.983Z,33.10
2023-04-15T04:53:39.992Z,33.06
2023-04-15T04:54:09.991Z,33.07
2023-04-15T04:54:40.000Z,33.01
2023-04-15T04:55:10.065Z,33.10
2023-04-15T04:55:40.102Z,33.10
2023-04-15T04:56:10.098Z,33.09
2023-04-15T04:56:40.147Z,33.08
2023-04-15T04:57:10.170Z,33.05
2023-04-15T04:57:40.178Z,33.12
2023-04-15T04:58:10.220Z,33.11
2023-04-15T04:58:40.215Z,33.12
2023-04-15T04:59:40.304Z,33.09
2023-04-15T05:00:10.329Z,33.11
2023-04-15T05:00:40.370Z,33.11
2023-04-15T05:01:10.550Z,33.15
2023-04-15T05:01:40.474Z,33.17
2023-04-15T05:02:10.499Z,33.12
2023-04-15T05:02:40.610Z,33.09
2023-04-15T05:03:10.689Z,33.18
2023-04-15T05:03:40.536Z,33.15
2023-04-15T05:04:10.684Z,33.13
2023-04-15T05:04:40.614Z,33.12
2023-04-15T05:05:10.629Z,33.12
2023-04-15T05:05:40.666Z,33.21
2023-04-15T05:06:10.679Z,33.18
2023-04-15T05:06:40.676Z,33.16
2023-04-15T05:07:10.714Z,33.14
2023-04-15T05:07:40.740Z,33.12
2023-04-15T05:08:10.729Z,33.15
2023-04-15T05:08:40.816Z,33.16
2023-04-15T05:09:10.916Z,33.17
2023-04-15T05:09:41.009Z,33.13
2023-04-15T05:10:11.106Z,33.23
2023-04-15T05:10:41.259Z,33.15
2023-04-15T05:11:11.211Z,33.12
2023-04-15T05:11:41.305Z,33.12
2023-04-15T05:12:11.372Z,33.13
2023-04-15T05:12:41.485Z,33.13
2023-04-15T05:13:11.563Z,33.09
2023-04-15T05:13:41.666Z,33.06
2023-04-15T05:14:11.741Z,33.08
2023-04-15T05:14:41.815Z,33.06
2023-04-15T05:15:11.899Z,33.14
2023-04-15T05:15:42.025Z,33.11
2023-04-15T05:16:12.125Z,33.11
2023-04-15T05:16:42.097Z,33.02
2023-04-15T05:17:12.176Z,33.08
2023-04-15T05:17:42.351Z,33.07
2023-04-15T05:18:12.337Z,33.06
2023-04-15T05:18:42.353Z,33.06
2023-04-15T05:19:12.344Z,33.09
2023-04-15T05:19:42.358Z,33.11
2023-04-15T05:20:12.366Z,33.08
2023-04-15T05:20:42.375Z,33.09
2023-04-15T05:21:12.376Z,33.07
2023-04-15T05:21:42.401Z,33.00
2023-04-15T05:22:12.400Z,32.99
2023-04-15T05:22:42.439Z,33.00
2023-04-15T05:23:12.410Z,32.99
2023-04-15T05:23:42.426Z,32.96
2023-04-15T05:24:12.420Z,32.96
2023-04-15T05:24:42.467Z,33.02
2023-04-15T05:25:12.462Z,32.97
2023-04-15T05:25:42.546Z,32.97
2023-04-15T05:26:12.565Z,32.89
2023-04-15T05:26:42.968Z,32.92
2023-04-15T05:27:12.561Z,32.93
2023-04-15T05:27:42.577Z,32.85
2023-04-15T05:28:12.592Z,32.89
2023-04-15T05:28:42.612Z,32.83
2023-04-15T05:29:12.613Z,32.89
2023-04-15T05:30:13.674Z,32.88
2023-04-15T05:30:42.712Z,32.84
2023-04-15T05:31:12.739Z,32.83
2023-04-15T05:31:42.764Z,32.86
2023-04-15T05:32:12.840Z,32.84
2023-04-15T05:32:42.854Z,32.87
2023-04-15T05:33:12.862Z,32.91
2023-04-15T05:33:42.913Z,32.93
2023-04-15T05:34:12.902Z,32.93
2023-04-15T05:34:42.977Z,33.00
2023-04-15T05:35:13.822Z,33.00
2023-04-15T05:35:43.012Z,32.97
2023-04-15T05:36:43.133Z,32.95
2023-04-15T05:37:13.178Z,32.96
2023-04-15T05:37:43.192Z,33.02
2023-04-15T05:38:13.207Z,32.99
2023-04-15T05:38:43.204Z,32.95
2023-04-15T05:39:13.257Z,32.92
2023-04-15T05:39:43.260Z,33.00
2023-04-15T05:40:13.284Z,33.00
2023-04-15T05:40:43.296Z,32.97
2023-04-15T05:41:13.304Z,33.00
2023-04-15T05:41:43.343Z,32.98
2023-04-15T05:42:13.327Z,33.00
2023-04-15T05:43:13.339Z,33.04
2023-04-15T05:43:43.374Z,33.03
2023-04-15T05:44:13.376Z,33.04
2023-04-15T05:44:43.377Z,33.12
2023-04-15T05:45:13.395Z,33.03
2023-04-15T05:45:43.410Z,33.07
2023-04-15T05:46:13.438Z,33.06
2023-04-15T05:46:43.533Z,33.01
2023-04-15T05:47:13.475Z,33.03
2023-04-15T05:47:43.507Z,33.11
2023-04-15T05:48:13.522Z,33.04
2023-04-15T05:48:43.526Z,33.10
2023-04-15T05:49:13.541Z,33.08
2023-04-15T05:49:43.573Z,33.10
2023-04-15T05:50:13.567Z,33.06
2023-04-15T05:50:43.637Z,33.06
2023-04-15T05:51:13.638Z,33.01
2023-04-15T05:51:43.658Z,32.98
2023-04-15T05:52:13.704Z,33.05
2023-04-15T05:52:43.696Z,32.98
2023-04-15T05:53:13.711Z,33.01
2023-04-15T05:53:43.711Z,32.98
2023-04-15T05:54:13.745Z,32.95
2023-04-15T05:54:43.754Z,32.91
2023-04-15T05:55:13.755Z,32.93
2023-04-15T05:55:43.772Z,32.91
2023-04-15T05:56:13.790Z,32.99
2023-04-15T05:56:43.792Z,32.90
2023-04-15T05:57:13.830Z,32.88
2023-04-15T05:57:43.852Z,32.93
2023-04-15T05:58:13.840Z,32.91
2023-04-15T05:58:43.908Z,32.91
2023-04-15T05:59:13.913Z,32.87
2023-04-15T05:59:43.987Z,32.91
2023-04-15T06:00:13.990Z,32.92
2023-04-15T06:00:44.013Z,32.94
2023-04-15T06:01:14.018Z,32.95
2023-04-15T06:01:44.020Z,32.88
2023-04-15T06:02:14.086Z,32.93
2023-04-15T06:02:44.178Z,32.89
2023-04-15T06:03:14.253Z,32.87
2023-04-15T06:03:44.298Z,32.86
2023-04-15T06:04:44.373Z,32.80
2023-04-15T06:05:14.365Z,32.72
2023-04-15T06:05:44.389Z,32.75
2023-04-15T06:06:14.406Z,32.73
2023-04-15T06:06:44.383Z,32.72
2023-04-15T06:07:45.577Z,32.75
2023-04-15T06:08:14.566Z,32.64
2023-04-15T06:08:44.656Z,32.64
2023-04-15T06:09:14.745Z,32.67
2023-04-15T06:09:44.843Z,32.66
2023-04-15T06:10:14.922Z,32.70
2023-04-15T06:10:45.004Z,32.65
2023-04-15T06:11:15.088Z,32.68
2023-04-15T06:11:45.168Z,32.64
2023-04-15T06:12:15.248Z,32.65
2023-04-15T06:12:45.358Z,32.65
2023-04-15T06:13:15.478Z,32.69
2023-04-15T06:13:45.442Z,32.71
2023-04-15T06:14:15.513Z,32.66
2023-04-15T06:14:45.541Z,32.66
2023-04-15T06:15:15.629Z,32.70
2023-04-15T06:15:45.717Z,32.72
2023-04-15T06:16:15.861Z,32.78
2023-04-15T06:16:45.827Z,32.81
2023-04-15T06:17:15.911Z,32.80
2023-04-15T06:17:46.028Z,32.79
2023-04-15T06:18:16.015Z,32.86
2023-04-15T06:18:46.007Z,32.92
2023-04-15T06:19:16.028Z,32.95
2023-04-15T06:19:46.048Z,32.99
2023-04-15T06:20:16.051Z,33.10
2023-04-15T06:20:46.068Z,33.07
2023-04-15T06:21:16.071Z,33.11
2023-04-15T06:21:46.076Z,33.07
2023-04-15T06:22:16.100Z,33.08
2023-04-15T06:22:46.134Z,33.07
2023-04-15T06:23:16.152Z,33.17
2023-04-15T06:23:46.176Z,33.15
2023-04-15T06:24:16.179Z,33.20
2023-04-15T06:24:46.209Z,33.21
2023-04-15T06:25:16.237Z,33.18
2023-04-15T06:25:46.248Z,33.19
2023-04-15T06:26:16.240Z,33.28
2023-04-15T06:26:46.261Z,33.21
2023-04-15T06:27:16.277Z,33.27
2023-04-15T06:27:46.294Z,33.39
2023-04-15T06:28:16.334Z,33.40
2023-04-15T06:28:46.316Z,33.40
2023-04-15T06:29:46.417Z,33.40
2023-04-15T06:30:16.424Z,33.38
2023-04-15T06:30:46.452Z,33.38
2023-04-15T06:31:16.469Z,33.34
2023-04-15T06:31:46.537Z,33.38
2023-04-15T06:32:16.560Z,33.37
2023-04-15T06:32:46.604Z,33.37
2023-04-15T06:33:16.676Z,33.31
2023-04-15T06:33:46.654Z,33.34
2023-04-15T06:34:16.678Z,33.31
2023-04-15T06:34:46.700Z,33.32
2023-04-15T06:35:16.803Z,33.38
2023-04-15T06:35:46.792Z,33.35
2023-04-15T06:36:16.788Z,33.40